createdAt,value
2017-07-03T00:00:00.990Z,75.30
2017-07-03T00:02:28.563Z,75.30
2017-07-03T00:04:56.094Z,75.40
2017-07-03T00:07:24.409Z,75.90
2017-07-03T00:09:51.942Z,75.90
2017-07-03T00:12:19.519Z,75.70
2017-07-03T00:14:47.065Z,75.90
2017-07-03T00:17:14.622Z,75.90
2017-07-03T00:19:42.165Z,75.20
2017-07-03T00:22:09.716Z,74.40
2017-07-03T00:24:38.029Z,75.30
2017-07-03T00:27:05.566Z,75.20
2017-07-03T00:29:33.123Z,75.60
2017-07-03T00:32:00.647Z,74.60
2017-07-03T00:34:28.207Z,74.40
2017-07-03T00:36:55.745Z,74.00
2017-07-03T00:39:23.281Z,74.20
2017-07-03T00:41:50.837Z,74.60
2017-07-03T00:44:18.372Z,74.70
2017-07-03T00:46:45.946Z,74.60
2017-07-03T00:49:13.478Z,74.70
2017-07-03T00:51:41.072Z,74.60
2017-07-03T00:54:08.600Z,74.50
2017-07-03T00:56:36.900Z,74.70
2017-07-03T00:59:04.471Z,74.70
2017-07-03T01:01:32.009Z,74.40
2017-07-03T01:04:00.319Z,74.80
2017-07-03T01:06:27.863Z,74.80
2017-07-03T01:08:55.429Z,75.00
2017-07-03T01:11:22.961Z,74.90
2017-07-03T01:13:50.489Z,74.70
2017-07-03T01:16:18.025Z,75.20
2017-07-03T01:18:45.567Z,75.10
2017-07-03T01:21:13.112Z,75.00
2017-07-03T01:23:40.646Z,75.00
2017-07-03T01:26:08.972Z,75.30
2017-07-03T01:28:36.527Z,75.30
2017-07-03T01:31:04.051Z,75.10
2017-07-03T01:33:31.623Z,75.60
2017-07-03T01:35:59.175Z,75.30
2017-07-03T01:38:26.751Z,75.50
2017-07-03T01:40:54.282Z,75.60
2017-07-03T01:43:22.618Z,76.50
2017-07-03T01:45:50.147Z,76.40
2017-07-03T01:48:17.678Z,76.40
2017-07-03T01:50:45.999Z,76.60
2017-07-03T01:53:13.522Z,76.60
2017-07-03T01:55:41.086Z,76.80
2017-07-03T01:58:08.622Z,76.70
2017-07-03T02:00:36.949Z,76.80
2017-07-03T02:03:04.484Z,76.80
2017-07-03T02:05:32.002Z,76.40
2017-07-03T02:07:59.563Z,76.40
2017-07-03T02:10:27.095Z,76.30
2017-07-03T02:12:54.644Z,75.60
2017-07-03T02:15:22.182Z,75.30
2017-07-03T02:17:49.734Z,75.70
2017-07-03T02:20:17.250Z,75.30
2017-07-03T02:22:44.802Z,75.50
2017-07-03T02:25:12.345Z,75.30
2017-07-03T02:27:39.911Z,75.90
2017-07-03T02:30:07.462Z,75.90
2017-07-03T02:32:35.000Z,76.20
2017-07-03T02:35:02.555Z,76.20
2017-07-03T02:37:30.089Z,76.20
2017-07-03T02:39:58.391Z,76.00
2017-07-03T02:42:26.510Z,75.90
2017-07-03T02:44:54.050Z,75.40
2017-07-03T02:47:21.596Z,75.30
2017-07-03T02:49:49.131Z,75.60
2017-07-03T02:52:16.719Z,75.70
2017-07-03T02:54:44.247Z,75.90
2017-07-03T02:57:11.786Z,76.10
2017-07-03T02:59:40.090Z,77.00
2017-07-03T03:02:07.645Z,76.90
2017-07-03T03:04:35.212Z,77.00
2017-07-03T03:07:02.760Z,77.20
2017-07-03T03:09:30.332Z,76.60
2017-07-03T03:11:57.859Z,76.70
2017-07-03T03:14:26.161Z,76.20
2017-07-03T03:16:53.724Z,76.10
2017-07-03T03:19:21.285Z,76.00
2017-07-03T03:21:48.850Z,75.80
2017-07-03T03:24:16.384Z,76.60
2017-07-03T03:26:44.711Z,75.90
2017-07-03T03:29:12.242Z,75.90
2017-07-03T03:31:39.779Z,76.60
2017-07-03T03:34:07.346Z,76.90
2017-07-03T03:36:34.886Z,77.00
2017-07-03T03:39:03.209Z,77.90
2017-07-03T03:41:30.756Z,77.10
2017-07-03T03:43:58.348Z,77.10
2017-07-03T03:46:25.869Z,77.10
2017-07-03T03:48:53.402Z,77.30
2017-07-03T03:51:21.715Z,77.50
2017-07-03T03:53:49.234Z,76.90
2017-07-03T03:56:17.546Z,76.60
2017-07-03T03:58:45.075Z,76.50
2017-07-03T04:01:13.426Z,75.70
2017-07-03T04:03:40.954Z,75.70
2017-07-03T04:06:08.481Z,74.90
2017-07-03T04:08:36.024Z,74.30
2017-07-03T04:11:04.323Z,73.90
2017-07-03T04:13:31.883Z,73.90
2017-07-03T04:15:59.442Z,73.40
2017-07-03T04:18:27.006Z,73.60
2017-07-03T04:20:54.596Z,73.20
2017-07-03T04:23:22.123Z,72.70
2017-07-03T04:25:49.676Z,73.20
2017-07-03T04:28:17.941Z,73.90
2017-07-03T04:30:45.485Z,73.60
2017-07-03T04:33:13.783Z,71.20
2017-07-03T04:35:41.373Z,71.70
2017-07-03T04:38:08.914Z,72.30
2017-07-03T04:40:36.461Z,72.00
2017-07-03T04:43:04.023Z,71.10
2017-07-03T04:45:31.554Z,70.90
2017-07-03T04:47:59.119Z,70.30
2017-07-03T04:50:27.438Z,69.60
2017-07-03T04:52:55.014Z,69.60
2017-07-03T04:55:22.543Z,69.30
2017-07-03T04:57:50.079Z,69.40
2017-07-03T05:00:18.399Z,69.20
2017-07-03T05:02:45.939Z,69.20
2017-07-03T05:05:13.556Z,69.40
2017-07-03T05:07:41.081Z,68.10
2017-07-03T05:10:08.658Z,67.30
2017-07-03T05:12:36.198Z,67.70
2017-07-03T05:15:03.738Z,68.50
2017-07-03T05:17:31.303Z,69.00
2017-07-03T05:19:58.873Z,68.40
2017-07-03T05:22:26.445Z,68.90
2017-07-03T05:24:54.006Z,68.30
2017-07-03T05:27:21.569Z,68.10
2017-07-03T05:29:49.100Z,65.90
2017-07-03T05:32:16.625Z,60.40
2017-07-03T05:34:44.158Z,56.00
2017-07-03T05:37:11.690Z,53.90
2017-07-03T05:39:39.471Z,52.00
2017-07-03T05:42:07.818Z,41.40
2017-07-03T05:44:35.375Z,31.80
2017-07-03T05:47:02.901Z,28.00
2017-07-03T05:49:31.249Z,35.70
2017-07-03T05:51:58.785Z,35.00
2017-07-03T05:54:26.319Z,40.70
2017-07-03T05:56:53.882Z,45.80
2017-07-03T05:59:21.418Z,48.60
2017-07-03T06:01:49.733Z,52.10
2017-07-03T06:04:17.249Z,52.00
2017-07-03T06:06:45.557Z,53.00
2017-07-03T06:09:13.126Z,53.00
2017-07-03T06:11:40.677Z,54.20
2017-07-03T06:14:08.226Z,53.80
2017-07-03T06:16:35.758Z,54.00
2017-07-03T06:19:04.061Z,54.80
2017-07-03T06:21:31.580Z,54.30
2017-07-03T06:23:59.218Z,54.40
2017-07-03T06:26:26.765Z,54.20
2017-07-03T06:28:54.323Z,53.60
2017-07-03T06:31:21.858Z,52.70
2017-07-03T06:33:49.389Z,53.40
2017-07-03T06:36:16.930Z,51.70
2017-07-03T06:38:44.466Z,51.50
2017-07-03T06:41:12.034Z,52.90
2017-07-03T06:43:39.567Z,53.30
2017-07-03T06:46:07.128Z,51.60
2017-07-03T06:48:34.646Z,52.20
2017-07-03T06:51:02.954Z,53.50
2017-07-03T06:53:30.520Z,53.10
2017-07-03T06:55:58.046Z,51.80
2017-07-03T06:58:26.356Z,51.70
2017-07-03T07:00:53.882Z,51.70
2017-07-03T07:03:22.191Z,49.50
2017-07-03T07:05:49.715Z,50.10
2017-07-03T07:08:18.020Z,49.90
2017-07-03T07:10:45.728Z,49.80
2017-07-03T07:13:13.274Z,49.90
2017-07-03T07:15:40.806Z,48.90
2017-07-03T07:18:08.341Z,48.10
2017-07-03T07:20:35.885Z,45.60
2017-07-03T07:23:04.201Z,39.70
2017-07-03T07:25:31.725Z,39.60
2017-07-03T07:28:00.049Z,38.00
2017-07-03T07:30:27.591Z,37.90
2017-07-03T07:32:55.217Z,38.20
2017-07-03T07:35:23.551Z,40.40
2017-07-03T07:37:51.071Z,40.40
2017-07-03T07:40:19.395Z,39.80
2017-07-03T07:42:46.921Z,39.80
2017-07-03T07:45:14.475Z,39.30
2017-07-03T07:47:41.990Z,40.30
2017-07-03T07:50:09.533Z,42.20
2017-07-03T07:52:37.057Z,42.40
2017-07-03T07:55:04.614Z,42.20
2017-07-03T07:57:32.284Z,43.00
2017-07-03T07:59:59.838Z,41.80
2017-07-03T08:02:27.430Z,41.70
2017-07-03T08:04:54.982Z,41.90
2017-07-03T08:07:22.517Z,41.10
2017-07-03T08:09:50.077Z,37.50
2017-07-03T08:12:17.601Z,36.30
2017-07-03T08:14:45.932Z,35.40
2017-07-03T08:17:13.477Z,35.50
2017-07-03T08:19:41.100Z,34.10
2017-07-03T08:22:08.770Z,32.60
2017-07-03T08:24:36.309Z,31.20
2017-07-03T08:27:03.877Z,29.60
2017-07-03T08:29:32.166Z,29.80
2017-07-03T08:31:59.717Z,29.80
2017-07-03T08:34:28.003Z,29.30
2017-07-03T08:36:56.351Z,28.10
2017-07-03T08:39:23.891Z,27.90
2017-07-03T08:41:51.412Z,27.70
2017-07-03T08:44:18.964Z,26.30
2017-07-03T08:46:46.506Z,26.30
2017-07-03T08:49:14.825Z,25.60
2017-07-03T08:51:42.375Z,25.70
2017-07-03T08:54:09.926Z,25.90
2017-07-03T08:56:37.457Z,25.70
2017-07-03T08:59:05.775Z,26.80
2017-07-03T09:01:33.295Z,26.70
2017-07-03T09:04:01.618Z,28.00
2017-07-03T09:06:29.162Z,28.00
2017-07-03T09:08:56.702Z,25.70
2017-07-03T09:11:25.010Z,28.60
2017-07-03T09:13:52.560Z,28.60
2017-07-03T09:16:20.107Z,28.80
2017-07-03T09:18:47.645Z,26.30
2017-07-03T09:21:15.954Z,25.00
2017-07-03T09:23:43.469Z,25.00
2017-07-03T09:26:11.794Z,23.50
2017-07-03T09:28:39.325Z,23.50
2017-07-03T09:31:07.632Z,25.50
2017-07-03T09:33:35.165Z,25.50
2017-07-03T09:36:02.728Z,25.50
2017-07-03T09:38:30.248Z,24.50
2017-07-03T09:40:57.827Z,23.90
2017-07-03T09:43:26.118Z,22.20
2017-07-03T09:45:54.409Z,22.30
2017-07-03T09:48:21.951Z,22.30
2017-07-03T09:50:50.243Z,22.10
2017-07-03T09:53:17.790Z,22.20
2017-07-03T09:55:45.330Z,24.90
2017-07-03T09:58:13.635Z,27.50
2017-07-03T10:00:41.160Z,26.90
2017-07-03T10:03:08.708Z,25.80
2017-07-03T10:05:36.250Z,23.60
2017-07-03T10:08:03.895Z,23.60
2017-07-03T10:10:31.411Z,22.40
2017-07-03T10:12:59.725Z,21.50
2017-07-03T10:15:27.264Z,21.50
2017-07-03T10:17:54.825Z,20.80
2017-07-03T10:20:22.362Z,21.50
2017-07-03T10:22:50.692Z,21.20
2017-07-03T10:25:18.215Z,21.10
2017-07-03T10:27:45.747Z,22.20
2017-07-03T10:30:13.294Z,21.40
2017-07-03T10:32:40.824Z,21.70
2017-07-03T10:35:08.411Z,20.70
2017-07-03T10:37:35.926Z,21.30
2017-07-03T10:40:03.506Z,20.20
2017-07-03T10:42:31.046Z,21.00
2017-07-03T10:44:58.590Z,20.20
2017-07-03T10:47:26.118Z,20.20
2017-07-03T10:49:53.664Z,22.10
2017-07-03T10:52:21.198Z,19.90
2017-07-03T10:54:48.754Z,19.60
2017-07-03T10:57:16.273Z,20.20
2017-07-03T10:59:44.571Z,19.10
2017-07-03T11:02:12.105Z,19.10
2017-07-03T11:04:39.625Z,20.80
2017-07-03T11:07:07.169Z,20.70
2017-07-03T11:09:34.691Z,20.90
2017-07-03T11:12:02.237Z,22.70
2017-07-03T11:14:30.522Z,24.60
2017-07-03T11:16:58.066Z,24.60
2017-07-03T11:19:25.589Z,24.50
2017-07-03T11:21:53.181Z,24.40
2017-07-03T11:24:20.707Z,24.70
2017-07-03T11:26:48.232Z,24.10
2017-07-03T11:29:15.801Z,20.40
2017-07-03T11:31:43.322Z,20.60
2017-07-03T11:34:11.667Z,18.90
2017-07-03T11:36:39.198Z,18.80
2017-07-03T11:39:06.743Z,20.20
2017-07-03T11:41:34.275Z,20.90
2017-07-03T11:44:02.581Z,20.80
2017-07-03T11:46:30.112Z,20.80
2017-07-03T11:48:59.288Z,19.80
2017-07-03T11:51:26.814Z,19.90
2017-07-03T11:53:54.363Z,17.30
2017-07-03T11:56:21.926Z,16.50
2017-07-03T11:58:49.481Z,17.00
2017-07-03T12:01:17.032Z,17.70
2017-07-03T12:03:44.571Z,18.40
2017-07-03T12:06:12.194Z,19.40
2017-07-03T12:08:39.738Z,20.00
2017-07-03T12:11:07.285Z,19.90
2017-07-03T12:13:34.806Z,19.40
2017-07-03T12:16:03.118Z,19.00
2017-07-03T12:18:30.657Z,19.10
2017-07-03T12:20:58.218Z,18.60
2017-07-03T12:23:25.742Z,16.20
2017-07-03T12:25:53.286Z,14.00
2017-07-03T12:28:20.810Z,16.30
2017-07-03T12:30:48.372Z,16.20
2017-07-03T12:33:15.895Z,16.50
2017-07-03T12:35:43.423Z,17.10
2017-07-03T12:38:10.989Z,17.30
2017-07-03T12:40:38.517Z,18.60
2017-07-03T12:43:06.062Z,19.70
2017-07-03T12:45:33.602Z,20.70
2017-07-03T12:48:01.681Z,19.40
2017-07-03T12:50:29.205Z,18.70
2017-07-03T12:52:57.642Z,19.10
2017-07-03T12:55:25.165Z,19.10
2017-07-03T12:57:52.714Z,17.60
2017-07-03T13:00:20.993Z,17.30
2017-07-03T13:02:49.294Z,18.50
2017-07-03T13:05:16.814Z,18.50
2017-07-03T13:07:45.134Z,17.20
2017-07-03T13:10:12.679Z,17.00
2017-07-03T13:12:40.201Z,16.20
2017-07-03T13:15:07.846Z,17.00
2017-07-03T13:17:35.358Z,17.10
2017-07-03T13:20:02.944Z,18.40
2017-07-03T13:22:30.482Z,16.60
2017-07-03T13:24:58.026Z,18.50
2017-07-03T13:27:25.582Z,16.50
2017-07-03T13:29:53.126Z,18.10
2017-07-03T13:32:21.437Z,17.20
2017-07-03T13:34:48.976Z,17.20
2017-07-03T13:37:18.241Z,17.00
2017-07-03T13:39:45.802Z,16.90
2017-07-03T13:42:13.350Z,17.50
2017-07-03T13:44:40.918Z,16.90
2017-07-03T13:47:08.447Z,16.80
2017-07-03T13:49:36.003Z,16.60
2017-07-03T13:52:03.546Z,16.60
2017-07-03T13:54:31.085Z,17.40
2017-07-03T13:56:59.415Z,18.10
2017-07-03T13:59:26.942Z,18.10
2017-07-03T14:01:54.562Z,16.50
2017-07-03T14:04:22.110Z,17.30
2017-07-03T14:06:49.645Z,17.50
2017-07-03T14:09:17.184Z,17.40
2017-07-03T14:11:44.732Z,17.20
2017-07-03T14:14:12.419Z,16.90
2017-07-03T14:16:39.962Z,17.70
2017-07-03T14:19:07.502Z,17.90
2017-07-03T14:21:35.840Z,17.30
2017-07-03T14:24:03.394Z,17.30
2017-07-03T14:26:30.919Z,17.70
2017-07-03T14:28:58.457Z,18.30
2017-07-03T14:31:26.735Z,20.30
2017-07-03T14:33:54.898Z,20.30
2017-07-03T14:36:23.216Z,20.00
2017-07-03T14:38:50.758Z,20.00
2017-07-03T14:41:18.330Z,20.50
2017-07-03T14:43:45.866Z,20.40
2017-07-03T14:46:13.401Z,21.10
2017-07-03T14:48:41.724Z,21.50
2017-07-03T14:51:09.247Z,21.50
2017-07-03T14:53:37.555Z,21.90
2017-07-03T14:56:05.590Z,21.90
2017-07-03T14:58:33.913Z,23.10
2017-07-03T15:01:01.438Z,23.00
2017-07-03T15:03:28.964Z,23.70
2017-07-03T15:05:56.507Z,23.50
2017-07-03T15:08:24.035Z,24.40
2017-07-03T15:10:51.560Z,24.50
2017-07-03T15:13:19.117Z,24.90
2017-07-03T15:15:47.402Z,25.60
2017-07-03T15:18:14.955Z,25.60
2017-07-03T15:20:43.272Z,26.50
2017-07-03T15:23:10.817Z,26.50
2017-07-03T15:25:38.355Z,26.60
2017-07-03T15:28:05.914Z,26.80
2017-07-03T15:30:34.204Z,27.20
2017-07-03T15:33:01.745Z,27.10
2017-07-03T15:35:30.054Z,27.10
2017-07-03T15:37:57.582Z,27.00
2017-07-03T15:40:25.891Z,26.60
2017-07-03T15:42:53.409Z,26.60
2017-07-03T15:45:21.695Z,26.40
2017-07-03T15:47:49.998Z,25.80
2017-07-03T15:50:17.532Z,25.80
2017-07-03T15:52:45.839Z,26.20
2017-07-03T15:55:13.404Z,26.10
2017-07-03T15:57:40.983Z,25.50
2017-07-03T16:00:08.549Z,24.50
2017-07-03T16:02:36.070Z,24.00
2017-07-03T16:05:03.589Z,23.10
2017-07-03T16:07:31.130Z,21.40
2017-07-03T16:09:58.674Z,21.00
2017-07-03T16:12:26.231Z,22.40
2017-07-03T16:14:53.779Z,22.10
2017-07-03T16:17:21.326Z,22.50
2017-07-03T16:19:48.842Z,22.30
2017-07-03T16:22:16.384Z,23.00
2017-07-03T16:24:43.907Z,22.70
2017-07-03T16:27:11.454Z,23.20
2017-07-03T16:29:38.969Z,23.20
2017-07-03T16:32:06.494Z,23.70
2017-07-03T16:34:34.039Z,23.10
2017-07-03T16:37:01.570Z,24.10
2017-07-03T16:39:29.895Z,23.70
2017-07-03T16:41:57.418Z,23.90
2017-07-03T16:44:24.972Z,24.00
2017-07-03T16:46:52.509Z,23.40
2017-07-03T16:49:20.850Z,24.20
2017-07-03T16:51:48.376Z,24.20
2017-07-03T16:54:15.928Z,24.80
2017-07-03T16:56:43.453Z,25.10
2017-07-03T16:59:10.970Z,26.20
2017-07-03T17:01:38.520Z,25.80
2017-07-03T17:04:06.051Z,25.60
2017-07-03T17:06:34.365Z,26.30
2017-07-03T17:09:01.894Z,26.30
2017-07-03T17:11:29.454Z,26.20
2017-07-03T17:13:56.985Z,26.60
2017-07-03T17:16:24.535Z,26.30
2017-07-03T17:18:52.055Z,28.00
2017-07-03T17:21:19.624Z,28.00
2017-07-03T17:23:47.152Z,28.00
2017-07-03T17:26:14.702Z,27.90
2017-07-03T17:28:42.987Z,28.00
2017-07-03T17:31:10.514Z,28.00
2017-07-03T17:33:38.053Z,28.00
2017-07-03T17:36:05.579Z,28.20
2017-07-03T17:38:33.125Z,29.10
2017-07-03T17:41:00.661Z,29.00
2017-07-03T17:43:28.981Z,30.30
2017-07-03T17:45:56.518Z,29.90
2017-07-03T17:48:24.070Z,29.30
2017-07-03T17:50:51.608Z,29.70
2017-07-03T17:53:19.922Z,30.50
2017-07-03T17:55:47.449Z,30.40
2017-07-03T17:58:15.797Z,31.20
2017-07-03T18:00:43.323Z,31.10
2017-07-03T18:03:10.880Z,31.50
2017-07-03T18:05:38.431Z,32.60
2017-07-03T18:08:05.959Z,32.90
2017-07-03T18:10:34.278Z,34.50
2017-07-03T18:13:01.802Z,34.50
2017-07-03T18:15:30.109Z,35.60
2017-07-03T18:17:57.624Z,35.50
2017-07-03T18:20:25.206Z,36.30
2017-07-03T18:22:52.732Z,37.10
2017-07-03T18:25:21.218Z,37.60
2017-07-03T18:27:48.763Z,38.40
2017-07-03T18:30:16.303Z,39.30
2017-07-03T18:32:43.854Z,39.60
2017-07-03T18:35:11.379Z,40.40
2017-07-03T18:37:38.943Z,41.00
2017-07-03T18:40:06.471Z,41.30
2017-07-03T18:42:34.026Z,41.90
2017-07-03T18:45:01.546Z,42.10
2017-07-03T18:47:29.093Z,42.40
2017-07-03T18:49:56.608Z,43.80
2017-07-03T18:52:24.161Z,43.70
2017-07-03T18:54:51.687Z,44.00
2017-07-03T18:57:19.213Z,44.30
2017-07-03T18:59:46.763Z,44.70
2017-07-03T19:02:15.199Z,45.00
2017-07-03T19:04:42.745Z,45.30
2017-07-03T19:07:10.265Z,45.60
2017-07-03T19:09:37.805Z,45.90
2017-07-03T19:12:06.101Z,47.60
2017-07-03T19:14:33.643Z,46.90
2017-07-03T19:17:01.938Z,47.50
2017-07-03T19:19:29.491Z,47.50
2017-07-03T19:21:57.029Z,47.50
2017-07-03T19:24:24.597Z,47.90
2017-07-03T19:26:52.125Z,48.70
2017-07-03T19:29:19.643Z,49.00
2017-07-03T19:31:47.194Z,48.90
2017-07-03T19:34:14.721Z,49.10
2017-07-03T19:36:42.276Z,49.70
2017-07-03T19:39:09.802Z,49.80
2017-07-03T19:41:37.344Z,50.60
2017-07-03T19:44:04.866Z,51.30
2017-07-03T19:46:33.190Z,51.50
2017-07-03T19:49:00.714Z,51.50
2017-07-03T19:51:28.271Z,51.80
2017-07-03T19:53:55.800Z,52.10
2017-07-03T19:56:24.114Z,52.90
2017-07-03T19:58:51.657Z,52.70
2017-07-03T20:01:19.962Z,53.60
2017-07-03T20:03:47.510Z,53.50
2017-07-03T20:06:15.034Z,54.10
2017-07-03T20:08:42.650Z,54.80
2017-07-03T20:11:10.169Z,55.30
2017-07-03T20:13:38.513Z,55.60
2017-07-03T20:16:06.042Z,55.60
2017-07-03T20:18:33.602Z,56.50
2017-07-03T20:21:01.122Z,56.90
2017-07-03T20:23:29.406Z,58.40
2017-07-03T20:25:57.723Z,57.20
2017-07-03T20:28:25.247Z,57.10
2017-07-03T20:30:53.567Z,57.30
2017-07-03T20:33:21.091Z,57.30
2017-07-03T20:35:48.655Z,57.30
2017-07-03T20:38:16.184Z,57.20
2017-07-03T20:40:44.508Z,58.90
2017-07-03T20:43:12.033Z,58.90
2017-07-03T20:45:40.346Z,59.70
2017-07-03T20:48:07.878Z,59.60
2017-07-03T20:50:35.437Z,60.00
2017-07-03T20:53:02.963Z,60.20
2017-07-03T20:55:30.496Z,60.90
2017-07-03T20:57:58.054Z,61.40
2017-07-03T21:00:25.581Z,61.40
2017-07-03T21:02:53.127Z,62.70
2017-07-03T21:05:20.707Z,63.50
2017-07-03T21:07:48.273Z,63.90
2017-07-03T21:10:15.793Z,64.90
2017-07-03T21:12:44.115Z,66.90
2017-07-03T21:15:12.174Z,66.80
2017-07-03T21:17:39.722Z,66.50
2017-07-03T21:20:07.686Z,67.50
2017-07-03T21:22:35.247Z,67.80
2017-07-03T21:25:02.785Z,68.20
2017-07-03T21:27:31.089Z,69.10
2017-07-03T21:29:58.668Z,69.10
2017-07-03T21:32:26.268Z,68.60
2017-07-03T21:34:53.896Z,67.80
2017-07-03T21:37:21.468Z,69.10
2017-07-03T21:39:49.029Z,69.80
2017-07-03T21:42:16.564Z,70.70
2017-07-03T21:44:44.109Z,69.50
2017-07-03T21:47:11.649Z,69.60
2017-07-03T21:49:39.345Z,69.50
2017-07-03T21:52:06.880Z,69.10
2017-07-03T21:54:34.441Z,67.90
2017-07-03T21:57:02.003Z,68.10
2017-07-03T21:59:29.539Z,67.80
2017-07-03T22:01:57.099Z,67.40
2017-07-03T22:04:25.400Z,66.90
2017-07-03T22:06:52.965Z,66.90
2017-07-03T22:09:20.490Z,67.10
2017-07-03T22:11:48.818Z,68.00
2017-07-03T22:14:16.353Z,68.00
2017-07-03T22:16:43.925Z,68.90
2017-07-03T22:19:11.451Z,69.60
2017-07-03T22:21:39.017Z,69.70
2017-07-03T22:24:06.716Z,71.10
2017-07-03T22:26:34.251Z,72.40
2017-07-03T22:29:01.814Z,72.40
2017-07-03T22:31:29.340Z,72.40
2017-07-03T22:33:56.904Z,72.30
2017-07-03T22:36:25.208Z,72.30
2017-07-03T22:38:52.781Z,72.30
2017-07-03T22:41:20.344Z,72.30
2017-07-03T22:43:47.878Z,72.60
2017-07-03T22:46:15.433Z,73.00
2017-07-03T22:48:42.977Z,72.80
2017-07-03T22:51:11.303Z,72.40
2017-07-03T22:53:38.824Z,72.30
2017-07-03T22:56:06.379Z,73.20
2017-07-03T22:58:34.671Z,72.60
2017-07-03T23:01:02.232Z,72.60
2017-07-03T23:03:29.769Z,72.10
2017-07-03T23:05:58.091Z,72.20
2017-07-03T23:08:25.622Z,72.20
2017-07-03T23:10:53.178Z,71.20
2017-07-03T23:13:20.721Z,70.80
2017-07-03T23:15:48.301Z,69.90
2017-07-03T23:18:15.847Z,70.10
2017-07-03T23:20:43.390Z,69.20
2017-07-03T23:23:10.943Z,69.20
2017-07-03T23:25:38.470Z,68.70
2017-07-03T23:28:06.023Z,68.00
2017-07-03T23:30:33.554Z,67.80
2017-07-03T23:33:01.112Z,67.30
2017-07-03T23:35:28.647Z,67.50
2017-07-03T23:37:56.970Z,68.00
2017-07-03T23:40:24.498Z,68.00
2017-07-03T23:42:52.049Z,68.00
2017-07-03T23:45:19.592Z,68.10
2017-07-03T23:47:47.911Z,68.60
2017-07-03T23:50:15.437Z,68.60
2017-07-03T23:52:43.769Z,69.60
2017-07-03T23:55:11.301Z,69.60
2017-07-03T23:57:38.826Z,69.70
